Weather observations for the past three days for
Toronto Pearson International Airport
Imperial (Metric)
Date Time (edt) Wind (mph) Vis. (mi.) Weather Sky Cond. Temperature (ºF) Relative Humidity Wind Chill (°F) Heat Index (°F) Pressure Precipitation (in)
Air Dwpt 6 hour altimeter (in) sea level (mb) 1 hr 3 hr 6 hr
Max. Min.
05 17:00 W 10 15.00 Mostly Cloudy FEW015 BKN055 51.8 42.8 72% 29.74 1007.4
05 16:00 NW 16 15.00 Light Rain FEW015 FEW045 BKN059 51.8 42.8 72% 29.72 1006.9
05 15:00 W 14 G 22 15.00 Light Rain FEW025 FEW040 BKN053 OVC093 57.2 39.2 51% 29.69 1005.7
05 14:00 W 20 G 28 15.00 Overcast FEW052 BKN084 OVC260 59 39.2 48% 29.68 1005.2
05 13:00 W 16 15.00 Overcast FEW015 FEW043 FEW097 OVC260 60.8 44.6 55% 29.64 1004.0
05 12:00 W 17 15.00 Overcast FEW015 FEW055 OVC089 59 46.4 63% 29.65 1004.1
05 11:00 W 20 13.00 Mostly Cloudy SCT037 BKN070 59 50 72% 29.61 1003.0
05 10:00 W 20 15.00 Mostly Cloudy BKN028 BKN040 60.8 51.8 72% 29.57 1001.6
05 09:00 W 17 15.00 Mostly Cloudy FEW015 BKN028 BKN230 60.8 51.8 72% 29.56 1001.1
05 08:00 SW 12 G 20 15.00 Mostly Cloudy FEW086 BKN240 60.8 51.8 72% 29.52 999.9
05 07:00 SW 10 15.00 Mostly Cloudy FEW092 BKN130 BKN200 60.8 50 68% 29.51 999.4
05 06:00 S 13 G 20 15.00 Mostly Cloudy SCT080 BKN140 BKN230 60.8 50 68% 29.49 998.7
05 05:00 SW 13 G 18 15.00 Mostly Cloudy BKN088 62.6 50 64% 29.48 998.4
05 04:00 SW 12 G 18 15.00 Mostly Cloudy FEW080 BKN110 BKN250 62.6 50 64% 29.49 998.8
05 03:00 SW 13 15.00 Mostly Cloudy FEW070 SCT180 BKN250 62.6 50 64% 29.49 998.7
05 02:00 SW 18 G 26 15.00 Mostly Cloudy FEW065 BKN250 62.6 50 64% 29.51 999.3
05 01:00 SW 13 G 21 15.00 Partly Cloudy FEW090 SCT130 64.4 50 60% 29.51 999.4
05 00:00 SW 15 G 21 15.00 Mostly Cloudy FEW062 BKN170 64.4 50 60% 29.51 999.3
04 23:00 S 12 G 20 15.00 Partly Cloudy FEW064 SCT095 SCT250 64.4 44.6 49% 29.53 1000.0
04 22:00 S 9 15.00 Partly Cloudy FEW060 SCT250 66.2 39.2 37% 29.54 1000.5
04 21:00 S 10 G 20 15.00 Partly Cloudy FEW210 SCT260 68 39.2 35% 29.53 1000.2
04 20:00 SW 16 G 28 15.00 Mostly Cloudy FEW200 BKN260 68 37.4 33% 29.54 1000.6
04 19:00 SW 20 G 31 15.00 Mostly Cloudy FEW210 BKN260 69.8 39.2 33% 29.55 1001.0
04 18:00 SW 26 G 33 15.00 Mostly Cloudy and Windy FEW210 BKN230 71.6 39.2 31% 29.56 1001.3
04 17:00 SW 24 G 33 15.00 Mostly Cloudy and Breezy FEW015 BKN260 73.4 41 31% 29.55 1000.7
04 16:00 SW 24 G 35 15.00 Mostly Cloudy and Breezy FEW030 BKN260 71.6 42.8 36% 29.57 1001.4
04 15:00 SW 25 G 33 15.00 Partly Cloudy and Breezy FEW030 SCT260 73.4 42.8 33% 29.57 1001.6
04 14:00 SW 21 G 36 15.00 A Few Clouds and Breezy FEW025 FEW260 71.6 44.6 38% 29.59 1002.2
04 13:00 SW 15 G 25 15.00 Mostly Cloudy FEW030 BKN260 68 46.4 46% 29.62 1003.2
04 12:00 SW 13 G 23 15.00 A Few Clouds FEW030 FEW260 64.4 46.4 52% 29.63 1003.8
04 11:00 SW 12 G 20 15.00 Mostly Cloudy FEW030 BKN260 62.6 46.4 56% 29.65 1004.3
04 10:00 SW 10 G 17 15.00 Partly Cloudy FEW093 SCT260 59 42.8 55% 29.66 1004.5
04 09:00 SW 8 15.00 A Few Clouds FEW100 FEW260 55.4 41 59% 29.66 1004.8
04 08:00 SW 17 G 23 15.00 Partly Cloudy SCT140 SCT260 53.6 41 63% 29.67 1005.0
04 07:00 SW 15 15.00 A Few Clouds FEW093 FEW260 50 39.2 67% 45 29.67 1005.2
04 06:00 SW 12 G 18 15.00 Partly Cloudy FEW030 FEW093 SCT260 50 37.4 62% 46 29.67 1005.1
04 05:00 SW 15 G 22 15.00 Mostly Cloudy BKN110 50 37.4 62% 45 29.68 1005.4
04 04:00 SW 12 G 18 15.00 Mostly Cloudy BKN067 BKN110 51.8 37.4 58% 29.69 1005.6
04 03:00 SW 16 G 24 15.00 Mostly Cloudy BKN078 BKN130 53.6 37.4 54% 29.69 1005.8
04 02:00 SW 16 15.00 Mostly Cloudy FEW110 BKN220 53.6 37.4 54% 29.7 1006.0
04 01:00 SW 15 G 22 15.00 Mostly Cloudy SCT140 BKN240 53.6 37.4 54% 29.72 1006.6
04 00:00 SW 18 G 25 15.00 A Few Clouds FEW092 FEW170 53.6 37.4 54% 29.71 1006.6
03 23:00 SW 7 15.00 Mostly Cloudy SCT069 BKN160 50 37.4 62% 48 29.73 1007.2
03 22:00 SW 8 15.00 Mostly Cloudy SCT081 BKN150 51.8 37.4 58% 29.74 1007.5
03 21:00 S 7 15.00 Mostly Cloudy FEW083 BKN150 51.8 41 67% 29.74 1007.5
03 20:00 SW 9 15.00 Mostly Cloudy FEW070 BKN110 51.8 42.8 72% 29.74 1007.7
03 19:00 W 15 15.00 Mostly Cloudy FEW046 BKN080 50 42.8 76% 45 29.76 1008.3
03 18:00 W 16 G 23 12.00 Overcast FEW020 OVC058 50 42.8 76% 45 29.77 1008.9
03 17:00 W 21 G 28 8.00 Light Showers Rain and Breezy BKN050 OVC070 51.8 42.8 72% 29.77 1008.9
03 16:00 SW 17 G 29 12.00 Light Showers Rain BKN065 OVC080 57.2 35.6 44% 29.75 1008.0
03 15:00 SE 8 G 17 15.00 Mostly Cloudy BKN075 BKN100 53.6 33.8 47% 29.77 1008.7
03 14:00 SE 10 G 18 15.00 Mostly Cloudy FEW020 BKN080 53.6 28.4 38% 29.8 1009.8
03 13:00 W 14 G 20 15.00 Mostly Cloudy SCT072 BKN085 55.4 30.2 38% 29.83 1010.9
03 12:00 Vrbl 7 15.00 Mostly Cloudy SCT085 BKN100 53.6 28.4 38% 29.86 1011.8
03 11:00 SW 7 15.00 Mostly Cloudy BKN075 50 26.6 40% 48 29.88 1012.6
03 10:00 SW 3 15.00 Mostly Cloudy BKN070 46.4 30.2 53% 29.9 1013.1
03 09:00 SW 5 15.00 Partly Cloudy SCT078 SCT250 42.8 28.4 57% 41 29.9 1013.3
03 08:00 Calm 15.00 A Few Clouds FEW020 FEW060 39.2 30.2 70% 29.9 1013.2
03 07:00 SW 3 15.00 A Few Clouds FEW060 35.6 24.8 65% 29.9 1013.4
03 06:00 Calm 15.00 Mostly Cloudy BKN064 33.8 21.2 60% 29.9 1013.4
03 05:00 W 3 15.00 A Few Clouds FEW070 33.8 21.2 60% 29.92 1013.8
03 04:00 W 3 15.00 Mostly Cloudy BKN072 33.8 19.4 56% 29.92 1014.1
03 03:00 W 2 15.00 Clear SKC 33.8 21.2 60% 29.93 1014.2
03 02:00 W 5 15.00 Clear SKC 33.8 19.4 56% 30 29.94 1014.7
03 01:00 NW 6 15.00 Clear SKC 37.4 19.4 48% 33 29.95 1014.9
03 00:00 W 6 15.00 Clear SKC 37.4 21.2 52% 33 29.95 1015.0
02 23:00 W 7 15.00 Clear SKC 35.6 23 60% 31 29.95 1015.1
02 22:00 W 7 15.00 Clear SKC 37.4 23 56% 33 29.96 1015.3
02 21:00 SW 8 15.00 A Few Clouds FEW080 39.2 23 52% 34 29.95 1015.0
02 20:00 W 10 15.00 Mostly Cloudy FEW053 BKN080 44.6 23 43% 40 29.95 1014.9
02 19:00 NW 14 15.00 Mostly Cloudy FEW049 BKN082 44.6 24.8 46% 39 29.95 1014.9
02 18:00 NW 14 G 22 15.00 Mostly Cloudy FEW015 FEW040 BKN077 44.6 24.8 46% 39 29.95 1015.0
Date Time (edt) Wind (mph) Vis. (mi.) Weather Sky Cond. Air Dwpt Max. Min. Relative Humidity Wind Chill (°F) Heat Index (°F) altimeter (in) sea level (mb) 1 hr 3 hr 6 hr
6 hour
Temperature (ºF) Pressure Precipitation (in)